Beloit, Wisconsin
Current Conditions -  °F | °C
As of 2:45 PM on Friday 24 Oct 2014 (Local Time) from KJVL Reporting Station
Haze Haze  
Wind Chill: 57°   Ceiling: 1100
Heat Index: 57°   Visibility: 6mi
Dew Point: 52°   Wind: 8mph
Humidity: 82%   Direction: 210°SSW
Pressure: 29.97"   Gusts: NA
Location:  42.51°N, 89.03°W
Report Text: KJVL 241945Z 21007KT 6SM BR SCT007 BKN011 BKN090 14/11 A2997
Loading
Personal Weather Stations






























Interactive Weather Map New forecast layout! Learn more

10-Day Weather Forecast

Advertisements
Track Severe Weather on mobile